<?xml version="1.0" encoding="UTF-8" standalone="no" ?>
<gpx xmlns="http://www.topografix.com/GPX/1/1" xmlns:xsi="http://www.w3.org/2001/XMLSchema-instance" xsi:schemaLocation="http://www.topografix.com/GPX/1/1 http://www.topografix.com/GPX/1/1/gpx.xsd" version="1.1" creator="VisuGPX - https://www.visugpx.com">
  <metadata>
    <name>Traces DPT 33</name>
    <desc><![CDATA[Total: 12.2km]]></desc>
  </metadata>
  <trk>
    <name><![CDATA[Track 19 mai 2016 09:42]]></name>
    <extensions>
      <line xmlns="http://www.topografix.com/GPX/gpx_style/0/2">
        <color>008800</color>
        <width>4</width>
      </line>
    </extensions>
    <trkseg>
      <trkpt lat="44.76177" lon="0.04549">
        <ele>80</ele>
        <time>2016-05-19T07:42:51Z</time>
      </trkpt>
      <trkpt lat="44.76187" lon="0.04523">
        <ele>80</ele>
        <time>2016-05-19T07:43:43Z</time>
      </trkpt>
      <trkpt lat="44.76184" lon="0.04473">
        <ele>79</ele>
        <time>2016-05-19T07:44:30Z</time>
      </trkpt>
      <trkpt lat="44.76231" lon="0.04347">
        <ele>80</ele>
        <time>2016-05-19T07:44:41Z</time>
      </trkpt>
      <trkpt lat="44.76278" lon="0.04153">
        <ele>82</ele>
        <time>2016-05-19T07:44:54Z</time>
      </trkpt>
      <trkpt lat="44.7631" lon="0.04015">
        <ele>85</ele>
        <time>2016-05-19T07:45:05Z</time>
      </trkpt>
      <trkpt lat="44.76316" lon="0.03925">
        <ele>87</ele>
        <time>2016-05-19T07:45:15Z</time>
      </trkpt>
      <trkpt lat="44.76308" lon="0.0385">
        <ele>88</ele>
        <time>2016-05-19T07:45:27Z</time>
      </trkpt>
      <trkpt lat="44.76292" lon="0.03783">
        <ele>90</ele>
        <time>2016-05-19T07:45:38Z</time>
      </trkpt>
      <trkpt lat="44.76292" lon="0.03702">
        <ele>95</ele>
        <time>2016-05-19T07:45:49Z</time>
      </trkpt>
      <trkpt lat="44.76381" lon="0.03606">
        <ele>98</ele>
        <time>2016-05-19T07:46:00Z</time>
      </trkpt>
      <trkpt lat="44.76392" lon="0.03563">
        <ele>103</ele>
        <time>2016-05-19T07:46:10Z</time>
      </trkpt>
      <trkpt lat="44.76339" lon="0.03448">
        <ele>110</ele>
        <time>2016-05-19T07:46:28Z</time>
      </trkpt>
      <trkpt lat="44.76316" lon="0.03401">
        <ele>111</ele>
        <time>2016-05-19T07:46:40Z</time>
      </trkpt>
      <trkpt lat="44.76276" lon="0.03323">
        <ele>113</ele>
        <time>2016-05-19T07:46:50Z</time>
      </trkpt>
      <trkpt lat="44.762" lon="0.03211">
        <ele>111</ele>
        <time>2016-05-19T07:47:01Z</time>
      </trkpt>
      <trkpt lat="44.76195" lon="0.03237">
        <ele>114</ele>
        <time>2016-05-19T07:47:58Z</time>
      </trkpt>
      <trkpt lat="44.76181" lon="0.03213">
        <ele>113</ele>
        <time>2016-05-19T07:48:28Z</time>
      </trkpt>
      <trkpt lat="44.76154" lon="0.03122">
        <ele>113</ele>
        <time>2016-05-19T07:48:39Z</time>
      </trkpt>
      <trkpt lat="44.76143" lon="0.03006">
        <ele>112</ele>
        <time>2016-05-19T07:48:51Z</time>
      </trkpt>
      <trkpt lat="44.76124" lon="0.02903">
        <ele>113</ele>
        <time>2016-05-19T07:49:02Z</time>
      </trkpt>
      <trkpt lat="44.76111" lon="0.02792">
        <ele>113</ele>
        <time>2016-05-19T07:49:13Z</time>
      </trkpt>
      <trkpt lat="44.76084" lon="0.02718">
        <ele>113</ele>
        <time>2016-05-19T07:49:23Z</time>
      </trkpt>
      <trkpt lat="44.76068" lon="0.02781">
        <ele>112</ele>
        <time>2016-05-19T07:49:34Z</time>
      </trkpt>
      <trkpt lat="44.76049" lon="0.02769">
        <ele>111</ele>
        <time>2016-05-19T07:49:44Z</time>
      </trkpt>
      <trkpt lat="44.76024" lon="0.02735">
        <ele>112</ele>
        <time>2016-05-19T07:49:56Z</time>
      </trkpt>
      <trkpt lat="44.76006" lon="0.02703">
        <ele>112</ele>
        <time>2016-05-19T07:50:07Z</time>
      </trkpt>
      <trkpt lat="44.75962" lon="0.02665">
        <ele>113</ele>
        <time>2016-05-19T07:50:19Z</time>
      </trkpt>
      <trkpt lat="44.75921" lon="0.02637">
        <ele>113</ele>
        <time>2016-05-19T07:50:52Z</time>
      </trkpt>
      <trkpt lat="44.75909" lon="0.02675">
        <ele>112</ele>
        <time>2016-05-19T07:51:12Z</time>
      </trkpt>
      <trkpt lat="44.75862" lon="0.02606">
        <ele>111</ele>
        <time>2016-05-19T07:51:24Z</time>
      </trkpt>
      <trkpt lat="44.75843" lon="0.02603">
        <ele>111</ele>
        <time>2016-05-19T07:51:34Z</time>
      </trkpt>
      <trkpt lat="44.75825" lon="0.02591">
        <ele>112</ele>
        <time>2016-05-19T07:51:45Z</time>
      </trkpt>
      <trkpt lat="44.7581" lon="0.02569">
        <ele>112</ele>
        <time>2016-05-19T07:51:55Z</time>
      </trkpt>
      <trkpt lat="44.75779" lon="0.02542">
        <ele>112</ele>
        <time>2016-05-19T07:52:09Z</time>
      </trkpt>
      <trkpt lat="44.75738" lon="0.02518">
        <ele>112</ele>
        <time>2016-05-19T07:52:19Z</time>
      </trkpt>
      <trkpt lat="44.75708" lon="0.02494">
        <ele>113</ele>
        <time>2016-05-19T07:52:29Z</time>
      </trkpt>
      <trkpt lat="44.75675" lon="0.02456">
        <ele>113</ele>
        <time>2016-05-19T07:52:42Z</time>
      </trkpt>
      <trkpt lat="44.75669" lon="0.02429">
        <ele>113</ele>
        <time>2016-05-19T07:52:54Z</time>
      </trkpt>
      <trkpt lat="44.75675" lon="0.02337">
        <ele>113</ele>
        <time>2016-05-19T07:53:22Z</time>
      </trkpt>
      <trkpt lat="44.75686" lon="0.02278">
        <ele>113</ele>
        <time>2016-05-19T07:53:35Z</time>
      </trkpt>
      <trkpt lat="44.75665" lon="0.02249">
        <ele>113</ele>
        <time>2016-05-19T07:53:45Z</time>
      </trkpt>
      <trkpt lat="44.75638" lon="0.02251">
        <ele>113</ele>
        <time>2016-05-19T07:53:59Z</time>
      </trkpt>
      <trkpt lat="44.75616" lon="0.02197">
        <ele>113</ele>
        <time>2016-05-19T07:55:41Z</time>
      </trkpt>
      <trkpt lat="44.75574" lon="0.02151">
        <ele>112</ele>
        <time>2016-05-19T07:55:58Z</time>
      </trkpt>
      <trkpt lat="44.75381" lon="0.02255">
        <ele>125</ele>
        <time>2016-05-19T07:57:43Z</time>
      </trkpt>
      <trkpt lat="44.7536" lon="0.02267">
        <ele>101</ele>
        <time>2016-05-19T07:57:54Z</time>
      </trkpt>
      <trkpt lat="44.75332" lon="0.02286">
        <ele>101</ele>
        <time>2016-05-19T07:58:04Z</time>
      </trkpt>
      <trkpt lat="44.75322" lon="0.02328">
        <ele>98</ele>
        <time>2016-05-19T07:58:18Z</time>
      </trkpt>
      <trkpt lat="44.75349" lon="0.02371">
        <ele>97</ele>
        <time>2016-05-19T07:58:30Z</time>
      </trkpt>
      <trkpt lat="44.75443" lon="0.02519">
        <ele>109</ele>
        <time>2016-05-19T07:59:16Z</time>
      </trkpt>
      <trkpt lat="44.75464" lon="0.02578">
        <ele>109</ele>
        <time>2016-05-19T07:59:26Z</time>
      </trkpt>
      <trkpt lat="44.75475" lon="0.02604">
        <ele>107</ele>
        <time>2016-05-19T07:59:51Z</time>
      </trkpt>
      <trkpt lat="44.75489" lon="0.0262">
        <ele>107</ele>
        <time>2016-05-19T08:00:16Z</time>
      </trkpt>
      <trkpt lat="44.75505" lon="0.0264">
        <ele>107</ele>
        <time>2016-05-19T08:00:34Z</time>
      </trkpt>
      <trkpt lat="44.75529" lon="0.02658">
        <ele>107</ele>
        <time>2016-05-19T08:01:07Z</time>
      </trkpt>
      <trkpt lat="44.75545" lon="0.02673">
        <ele>107</ele>
        <time>2016-05-19T08:01:24Z</time>
      </trkpt>
      <trkpt lat="44.75558" lon="0.02691">
        <ele>107</ele>
        <time>2016-05-19T08:02:35Z</time>
      </trkpt>
      <trkpt lat="44.75581" lon="0.02703">
        <ele>107</ele>
        <time>2016-05-19T08:03:18Z</time>
      </trkpt>
      <trkpt lat="44.75613" lon="0.02725">
        <ele>106</ele>
        <time>2016-05-19T08:03:28Z</time>
      </trkpt>
      <trkpt lat="44.7566" lon="0.02748">
        <ele>103</ele>
        <time>2016-05-19T08:03:40Z</time>
      </trkpt>
      <trkpt lat="44.75689" lon="0.02768">
        <ele>102</ele>
        <time>2016-05-19T08:03:50Z</time>
      </trkpt>
      <trkpt lat="44.75724" lon="0.02803">
        <ele>101</ele>
        <time>2016-05-19T08:04:02Z</time>
      </trkpt>
      <trkpt lat="44.7576" lon="0.02828">
        <ele>101</ele>
        <time>2016-05-19T08:04:13Z</time>
      </trkpt>
      <trkpt lat="44.75824" lon="0.02819">
        <ele>104</ele>
        <time>2016-05-19T08:04:25Z</time>
      </trkpt>
      <trkpt lat="44.75853" lon="0.02862">
        <ele>102</ele>
        <time>2016-05-19T08:04:35Z</time>
      </trkpt>
      <trkpt lat="44.75886" lon="0.02869">
        <ele>102</ele>
        <time>2016-05-19T08:04:49Z</time>
      </trkpt>
      <trkpt lat="44.75923" lon="0.02907">
        <ele>102</ele>
        <time>2016-05-19T08:05:00Z</time>
      </trkpt>
      <trkpt lat="44.75966" lon="0.02955">
        <ele>105</ele>
        <time>2016-05-19T08:05:12Z</time>
      </trkpt>
      <trkpt lat="44.75982" lon="0.03028">
        <ele>106</ele>
        <time>2016-05-19T08:05:23Z</time>
      </trkpt>
      <trkpt lat="44.75934" lon="0.03111">
        <ele>109</ele>
        <time>2016-05-19T08:05:34Z</time>
      </trkpt>
      <trkpt lat="44.75897" lon="0.03193">
        <ele>108</ele>
        <time>2016-05-19T08:05:45Z</time>
      </trkpt>
      <trkpt lat="44.75879" lon="0.03242">
        <ele>104</ele>
        <time>2016-05-19T08:05:55Z</time>
      </trkpt>
      <trkpt lat="44.75854" lon="0.03285">
        <ele>99</ele>
        <time>2016-05-19T08:06:05Z</time>
      </trkpt>
      <trkpt lat="44.75844" lon="0.03346">
        <ele>96</ele>
        <time>2016-05-19T08:06:17Z</time>
      </trkpt>
      <trkpt lat="44.75835" lon="0.03405">
        <ele>94</ele>
        <time>2016-05-19T08:06:30Z</time>
      </trkpt>
      <trkpt lat="44.75827" lon="0.03451">
        <ele>90</ele>
        <time>2016-05-19T08:06:42Z</time>
      </trkpt>
      <trkpt lat="44.758" lon="0.03506">
        <ele>87</ele>
        <time>2016-05-19T08:06:54Z</time>
      </trkpt>
      <trkpt lat="44.75783" lon="0.03552">
        <ele>83</ele>
        <time>2016-05-19T08:07:12Z</time>
      </trkpt>
      <trkpt lat="44.75775" lon="0.0361">
        <ele>80</ele>
        <time>2016-05-19T08:07:24Z</time>
      </trkpt>
      <trkpt lat="44.75795" lon="0.03701">
        <ele>79</ele>
        <time>2016-05-19T08:07:39Z</time>
      </trkpt>
      <trkpt lat="44.75768" lon="0.03729">
        <ele>76</ele>
        <time>2016-05-19T08:07:49Z</time>
      </trkpt>
      <trkpt lat="44.75746" lon="0.0379">
        <ele>75</ele>
        <time>2016-05-19T08:08:00Z</time>
      </trkpt>
      <trkpt lat="44.75711" lon="0.03865">
        <ele>72</ele>
        <time>2016-05-19T08:08:11Z</time>
      </trkpt>
      <trkpt lat="44.75685" lon="0.03957">
        <ele>69</ele>
        <time>2016-05-19T08:08:22Z</time>
      </trkpt>
      <trkpt lat="44.75659" lon="0.04001">
        <ele>67</ele>
        <time>2016-05-19T08:08:41Z</time>
      </trkpt>
      <trkpt lat="44.75688" lon="0.04009">
        <ele>71</ele>
        <time>2016-05-19T08:08:53Z</time>
      </trkpt>
      <trkpt lat="44.75731" lon="0.04023">
        <ele>76</ele>
        <time>2016-05-19T08:09:05Z</time>
      </trkpt>
      <trkpt lat="44.75772" lon="0.04042">
        <ele>78</ele>
        <time>2016-05-19T08:09:16Z</time>
      </trkpt>
      <trkpt lat="44.7581" lon="0.04053">
        <ele>81</ele>
        <time>2016-05-19T08:09:26Z</time>
      </trkpt>
      <trkpt lat="44.75875" lon="0.04062">
        <ele>89</ele>
        <time>2016-05-19T08:09:38Z</time>
      </trkpt>
      <trkpt lat="44.75918" lon="0.04063">
        <ele>94</ele>
        <time>2016-05-19T08:09:54Z</time>
      </trkpt>
      <trkpt lat="44.75932" lon="0.04084">
        <ele>96</ele>
        <time>2016-05-19T08:13:14Z</time>
      </trkpt>
      <trkpt lat="44.75969" lon="0.0412">
        <ele>94</ele>
        <time>2016-05-19T08:13:26Z</time>
      </trkpt>
      <trkpt lat="44.75975" lon="0.04086">
        <ele>92</ele>
        <time>2016-05-19T08:13:37Z</time>
      </trkpt>
      <trkpt lat="44.75988" lon="0.04029">
        <ele>97</ele>
        <time>2016-05-19T08:13:47Z</time>
      </trkpt>
      <trkpt lat="44.75989" lon="0.03985">
        <ele>99</ele>
        <time>2016-05-19T08:13:58Z</time>
      </trkpt>
      <trkpt lat="44.76094" lon="0.03609">
        <ele>105</ele>
        <time>2016-05-19T08:15:31Z</time>
      </trkpt>
      <trkpt lat="44.76095" lon="0.03554">
        <ele>105</ele>
        <time>2016-05-19T08:15:42Z</time>
      </trkpt>
      <trkpt lat="44.76102" lon="0.03525">
        <ele>106</ele>
        <time>2016-05-19T08:15:58Z</time>
      </trkpt>
      <trkpt lat="44.76143" lon="0.03441">
        <ele>108</ele>
        <time>2016-05-19T08:16:09Z</time>
      </trkpt>
      <trkpt lat="44.76152" lon="0.03416">
        <ele>110</ele>
        <time>2016-05-19T08:16:34Z</time>
      </trkpt>
      <trkpt lat="44.76164" lon="0.03346">
        <ele>111</ele>
        <time>2016-05-19T08:16:44Z</time>
      </trkpt>
      <trkpt lat="44.76181" lon="0.03249">
        <ele>113</ele>
        <time>2016-05-19T08:16:56Z</time>
      </trkpt>
      <trkpt lat="44.762" lon="0.0325">
        <ele>114</ele>
        <time>2016-05-19T08:17:06Z</time>
      </trkpt>
      <trkpt lat="44.76255" lon="0.03306">
        <ele>112</ele>
        <time>2016-05-19T08:17:17Z</time>
      </trkpt>
      <trkpt lat="44.76298" lon="0.03385">
        <ele>110</ele>
        <time>2016-05-19T08:17:27Z</time>
      </trkpt>
      <trkpt lat="44.76323" lon="0.03483">
        <ele>108</ele>
        <time>2016-05-19T08:17:37Z</time>
      </trkpt>
      <trkpt lat="44.76379" lon="0.03578">
        <ele>103</ele>
        <time>2016-05-19T08:17:48Z</time>
      </trkpt>
      <trkpt lat="44.76373" lon="0.03632">
        <ele>99</ele>
        <time>2016-05-19T08:17:59Z</time>
      </trkpt>
      <trkpt lat="44.76322" lon="0.03672">
        <ele>96</ele>
        <time>2016-05-19T08:18:09Z</time>
      </trkpt>
      <trkpt lat="44.76316" lon="0.04001">
        <ele>85</ele>
        <time>2016-05-19T08:18:44Z</time>
      </trkpt>
      <trkpt lat="44.76273" lon="0.04128">
        <ele>82</ele>
        <time>2016-05-19T08:18:55Z</time>
      </trkpt>
      <trkpt lat="44.76242" lon="0.04239">
        <ele>79</ele>
        <time>2016-05-19T08:19:06Z</time>
      </trkpt>
      <trkpt lat="44.76183" lon="0.04346">
        <ele>75</ele>
        <time>2016-05-19T08:19:17Z</time>
      </trkpt>
      <trkpt lat="44.76148" lon="0.04464">
        <ele>73</ele>
        <time>2016-05-19T08:19:28Z</time>
      </trkpt>
      <trkpt lat="44.7616" lon="0.04504">
        <ele>74</ele>
        <time>2016-05-19T08:19:39Z</time>
      </trkpt>
      <trkpt lat="44.76171" lon="0.04535">
        <ele>79</ele>
        <time>2016-05-19T08:19:50Z</time>
      </trkpt>
    </trkseg>
  </trk>
</gpx>